createdAt,value
2022-11-18T00:00:10.036Z,0.15
2022-11-18T00:02:39.484Z,0.09
2022-11-18T00:05:07.952Z,-0.01
2022-11-18T00:07:35.941Z,-0.07
2022-11-18T00:10:04.305Z,-0.04
2022-11-18T00:12:49.737Z,0.01
2022-11-18T00:15:17.808Z,-0.02
2022-11-18T00:17:47.163Z,-0.07
2022-11-18T00:20:15.748Z,-0.09
2022-11-18T00:22:44.541Z,-0.10
2022-11-18T00:25:12.565Z,-0.10
2022-11-18T00:27:40.520Z,-0.12
2022-11-18T00:30:10.381Z,-0.11
2022-11-18T00:32:38.438Z,-0.09
2022-11-18T00:35:09.042Z,-0.18
2022-11-18T00:37:37.085Z,-0.16
2022-11-18T00:40:05.771Z,-0.20
2022-11-18T00:42:51.033Z,-0.14
2022-11-18T00:45:19.117Z,-0.18
2022-11-18T00:47:47.290Z,-0.19
2022-11-18T00:50:17.252Z,-0.18
2022-11-18T00:52:45.265Z,-0.23
2022-11-18T00:55:13.207Z,-0.27
2022-11-18T00:57:41.235Z,-0.22
2022-11-18T01:00:10.880Z,-0.26
2022-11-18T01:02:38.952Z,-0.24
2022-11-18T01:05:07.435Z,-0.27
2022-11-18T01:07:36.936Z,-0.28
2022-11-18T01:10:05.641Z,-0.34
2022-11-18T01:12:54.296Z,-0.38
2022-11-18T01:15:22.753Z,-0.43
2022-11-18T01:17:50.755Z,-0.37
2022-11-18T01:20:18.829Z,-0.38
2022-11-18T01:22:48.151Z,-0.37
2022-11-18T01:25:16.320Z,-0.47
2022-11-18T01:27:44.309Z,-0.45
2022-11-18T01:30:13.465Z,-0.46
2022-11-18T01:32:41.477Z,-0.46
2022-11-18T01:35:10.556Z,-0.43
2022-11-18T01:37:38.677Z,-0.45
2022-11-18T01:40:10.172Z,-0.46
2022-11-18T01:42:38.238Z,-0.44
2022-11-18T01:45:16.665Z,-0.49
2022-11-18T01:47:49.656Z,-0.43
2022-11-18T01:50:19.981Z,-0.45
2022-11-18T01:52:51.892Z,-0.47
2022-11-18T01:55:25.500Z,-0.46
2022-11-18T01:57:58.164Z,-0.46
2022-11-18T02:00:26.187Z,-0.51
2022-11-18T02:02:54.761Z,-0.48
2022-11-18T02:05:23.550Z,-0.49
2022-11-18T02:07:52.772Z,-0.50
2022-11-18T02:10:25.027Z,-0.56
2022-11-18T02:12:56.664Z,-0.46
2022-11-18T02:15:37.165Z,-0.53
2022-11-18T02:18:14.148Z,-0.50
2022-11-18T02:20:44.164Z,-0.54
2022-11-18T02:23:33.348Z,-0.58
2022-11-18T02:26:32.841Z,-0.64
2022-11-18T02:29:08.522Z,-0.59
2022-11-18T02:31:46.301Z,-0.51
2022-11-18T02:34:23.004Z,-0.52
2022-11-18T02:36:58.171Z,-0.56
2022-11-18T02:39:32.623Z,-0.56
2022-11-18T02:42:05.347Z,-0.58
2022-11-18T02:44:38.370Z,-0.55
2022-11-18T02:47:09.706Z,-0.55
2022-11-18T02:49:41.408Z,-0.65
2022-11-18T02:52:11.501Z,-0.62
2022-11-18T02:54:42.700Z,-0.66
2022-11-18T02:57:11.077Z,-0.66
2022-11-18T02:59:40.601Z,-0.60
2022-11-18T03:02:10.963Z,-0.65
2022-11-18T03:04:39.133Z,-0.65
2022-11-18T03:07:13.188Z,-0.68
2022-11-18T03:09:44.538Z,-0.63
2022-11-18T03:12:19.895Z,-0.66
2022-11-18T03:15:01.138Z,-0.66
2022-11-18T03:17:41.329Z,-0.64
2022-11-18T03:20:20.480Z,-0.60
2022-11-18T03:22:56.156Z,-0.61
2022-11-18T03:25:30.570Z,-0.64
2022-11-18T03:28:06.650Z,-0.61
2022-11-18T03:30:39.739Z,-0.63
2022-11-18T03:33:13.234Z,-0.61
2022-11-18T03:35:45.522Z,-0.79
2022-11-18T03:38:18.097Z,-0.58
2022-11-18T03:40:51.411Z,-0.62
2022-11-18T03:43:22.810Z,-0.57
2022-11-18T03:45:54.984Z,-0.68
2022-11-18T03:48:27.877Z,-0.58
2022-11-18T03:51:01.351Z,-0.60
2022-11-18T03:53:33.870Z,-0.65
2022-11-18T03:56:09.546Z,-0.66
2022-11-18T03:58:47.049Z,-0.58
2022-11-18T04:01:20.823Z,-0.59
2022-11-18T04:03:49.118Z,-0.56
2022-11-18T04:06:25.780Z,-0.59
2022-11-18T04:08:58.653Z,-0.60
2022-11-18T04:11:50.605Z,-0.56
2022-11-18T04:14:20.400Z,-0.62
2022-11-18T04:16:53.334Z,-0.64
2022-11-18T04:19:21.697Z,-0.61
2022-11-18T04:21:51.191Z,-0.58
2022-11-18T04:24:19.164Z,-0.62
2022-11-18T04:26:47.169Z,-0.62
2022-11-18T04:29:15.385Z,-0.60
2022-11-18T04:31:43.545Z,-0.61
2022-11-18T04:34:13.028Z,-0.64
2022-11-18T04:36:41.125Z,-0.65
2022-11-18T04:39:09.354Z,-0.62
2022-11-18T04:41:54.808Z,-0.64
2022-11-18T04:44:23.129Z,-0.62
2022-11-18T04:46:51.422Z,-0.67
2022-11-18T04:49:21.013Z,-0.58
2022-11-18T04:51:49.433Z,-0.60
2022-11-18T04:54:18.261Z,-0.58
2022-11-18T04:56:49.479Z,-0.60
2022-11-18T04:59:21.575Z,-0.61
2022-11-18T05:01:50.504Z,-0.60
2022-11-18T05:04:21.883Z,-0.62
2022-11-18T05:06:50.206Z,-0.76
2022-11-18T05:09:18.865Z,-0.63
2022-11-18T05:12:04.592Z,-0.62
2022-11-18T05:14:33.024Z,-0.55
2022-11-18T05:17:02.572Z,-0.58
2022-11-18T05:19:32.085Z,-0.61
2022-11-18T05:22:00.378Z,-0.63
2022-11-18T05:24:28.344Z,-0.62
2022-11-18T05:26:57.051Z,-0.63
2022-11-18T05:29:25.092Z,-0.58
2022-11-18T05:31:53.065Z,-0.59
2022-11-18T05:34:21.192Z,-0.57
2022-11-18T05:36:50.640Z,-0.51
2022-11-18T05:39:19.110Z,-0.53
2022-11-18T05:42:04.708Z,-0.56
2022-11-18T05:44:32.685Z,-0.54
2022-11-18T05:47:01.236Z,-0.35
2022-11-18T05:49:29.330Z,-0.48
2022-11-18T05:51:58.663Z,-0.10
2022-11-18T05:54:26.965Z,0.69
2022-11-18T05:56:55.002Z,0.93
2022-11-18T05:59:23.053Z,0.80
2022-11-18T06:01:55.030Z,0.84
2022-11-18T06:04:27.662Z,0.60
2022-11-18T06:07:04.904Z,0.54
2022-11-18T06:09:37.976Z,0.51
2022-11-18T06:12:07.740Z,0.95
2022-11-18T06:14:40.236Z,1.25
2022-11-18T06:17:15.038Z,1.09
2022-11-18T06:19:43.347Z,1.15
2022-11-18T06:22:12.859Z,1.15
2022-11-18T06:24:41.858Z,1.28
2022-11-18T06:27:10.010Z,0.67
2022-11-18T06:29:37.959Z,0.20
2022-11-18T06:32:06.129Z,0.04
2022-11-18T06:34:39.823Z,-0.19
2022-11-18T06:37:18.276Z,-0.27
2022-11-18T06:39:46.404Z,-0.39
2022-11-18T06:42:35.286Z,1.11
2022-11-18T06:45:02.612Z,0.93
2022-11-18T06:47:30.912Z,0.63
2022-11-18T06:49:58.866Z,0.29
2022-11-18T06:52:28.805Z,-0.10
2022-11-18T06:54:56.800Z,-0.12
2022-11-18T06:57:24.814Z,-0.32
2022-11-18T06:59:56.496Z,-0.31
2022-11-18T07:02:27.285Z,-0.60
2022-11-18T07:04:55.298Z,-0.42
2022-11-18T07:07:23.410Z,-0.62
2022-11-18T07:09:52.922Z,-0.51
2022-11-18T07:12:20.973Z,-0.42
2022-11-18T07:14:49.010Z,-0.51
2022-11-18T07:17:17.017Z,0.06
2022-11-18T07:19:45.019Z,0.48
2022-11-18T07:22:13.015Z,0.00
2022-11-18T07:24:41.096Z,-0.28
2022-11-18T07:27:10.526Z,-0.27
2022-11-18T07:29:38.525Z,-0.26
2022-11-18T07:32:07.917Z,0.28
2022-11-18T07:34:35.994Z,0.01
2022-11-18T07:37:03.993Z,-0.12
2022-11-18T07:39:32.020Z,-0.27
2022-11-18T07:42:00.122Z,-0.36
2022-11-18T07:44:29.499Z,-0.47
2022-11-18T07:46:57.457Z,-0.47
2022-11-18T07:49:25.615Z,-0.46
2022-11-18T07:51:54.552Z,-0.53
2022-11-18T07:54:22.545Z,-0.57
2022-11-18T07:56:50.546Z,-0.62
2022-11-18T07:59:18.672Z,-0.47
2022-11-18T08:01:48.308Z,-0.58
2022-11-18T08:04:18.020Z,-0.59
2022-11-18T08:06:46.065Z,-0.54
2022-11-18T08:09:14.133Z,-0.59
2022-11-18T08:11:42.170Z,-0.59
2022-11-18T08:14:10.223Z,-0.66
2022-11-18T08:16:38.265Z,-0.58
2022-11-18T08:19:07.623Z,-0.65
2022-11-18T08:21:35.559Z,-0.59
2022-11-18T08:24:03.636Z,-0.58
2022-11-18T08:26:33.519Z,-0.56
2022-11-18T08:29:01.680Z,-0.61
2022-11-18T08:31:31.520Z,-0.61
2022-11-18T08:34:00.716Z,-0.56
2022-11-18T08:36:31.663Z,-0.55
2022-11-18T08:39:01.473Z,-0.67
2022-11-18T08:41:33.046Z,-0.50
2022-11-18T08:44:01.663Z,-0.47
2022-11-18T08:46:29.976Z,-0.39
2022-11-18T08:48:58.439Z,-0.47
2022-11-18T08:51:27.342Z,-0.41
2022-11-18T08:53:57.025Z,-0.40
2022-11-18T08:56:25.839Z,-0.39
2022-11-18T08:58:54.355Z,-0.43
2022-11-18T09:01:22.912Z,-0.41
2022-11-18T09:03:51.901Z,-0.32
2022-11-18T09:06:22.869Z,-0.27
2022-11-18T09:08:50.943Z,-0.30
2022-11-18T09:11:22.918Z,-0.25
2022-11-18T09:14:46.534Z,-0.19
2022-11-18T09:16:42.041Z,-0.25
2022-11-18T09:19:39.704Z,-0.19
2022-11-18T09:22:03.577Z,-0.11
2022-11-18T09:24:31.817Z,-0.07
2022-11-18T09:27:04.402Z,0.00
2022-11-18T09:29:32.919Z,-0.06
2022-11-18T09:32:01.979Z,0.07
2022-11-18T09:34:30.506Z,0.02
2022-11-18T09:36:58.562Z,-0.03
2022-11-18T09:39:26.868Z,-0.06
2022-11-18T09:42:07.598Z,0.02
2022-11-18T09:44:48.606Z,-0.01
2022-11-18T09:47:26.047Z,0.02
2022-11-18T09:49:56.700Z,0.03
2022-11-18T09:52:35.479Z,0.05
2022-11-18T09:55:05.914Z,0.01
2022-11-18T09:57:40.430Z,0.06
2022-11-18T10:00:16.174Z,0.17
2022-11-18T10:02:57.792Z,0.07
2022-11-18T10:05:27.703Z,0.11
2022-11-18T10:08:04.299Z,-0.02
2022-11-18T10:10:47.197Z,0.02
2022-11-18T10:13:27.840Z,0.14
2022-11-18T10:16:05.687Z,0.05
2022-11-18T10:21:40.514Z,0.10
2022-11-18T10:24:16.975Z,0.15
2022-11-18T10:26:45.280Z,0.07
2022-11-18T10:29:14.691Z,0.13
2022-11-18T10:32:04.164Z,-0.01
2022-11-18T10:34:33.230Z,-0.06
2022-11-18T10:37:04.070Z,-0.16
2022-11-18T10:39:32.886Z,-0.12
2022-11-18T10:42:04.006Z,-0.31
2022-11-18T10:44:37.027Z,-0.35
2022-11-18T10:47:27.386Z,-0.26
2022-11-18T10:49:57.550Z,-0.22
2022-11-18T10:52:25.964Z,-0.25
2022-11-18T10:55:21.059Z,-0.22
2022-11-18T10:57:52.036Z,-0.22
2022-11-18T11:00:43.573Z,-0.04
2022-11-18T11:03:33.917Z,0.05
2022-11-18T11:06:28.798Z,0.13
2022-11-18T11:08:58.892Z,0.10
2022-11-18T11:11:30.034Z,0.23
2022-11-18T11:14:07.354Z,0.31
2022-11-18T11:16:42.816Z,0.42
2022-11-18T11:19:13.745Z,0.48
2022-11-18T11:21:41.780Z,0.54
2022-11-18T11:24:13.637Z,0.59
2022-11-18T11:30:01.104Z,0.56
2022-11-18T11:32:40.793Z,0.55
2022-11-18T11:35:16.187Z,0.64
2022-11-18T11:37:55.065Z,0.74
2022-11-18T11:40:31.316Z,0.73
2022-11-18T11:43:11.403Z,0.75
2022-11-18T11:45:48.874Z,0.60
2022-11-18T11:48:38.187Z,0.60
2022-11-18T11:51:15.805Z,0.52
2022-11-18T11:54:08.509Z,0.45
2022-11-18T11:56:41.825Z,0.44
2022-11-18T11:59:29.396Z,0.38
2022-11-18T12:02:14.242Z,0.33
2022-11-18T12:04:49.008Z,0.44
2022-11-18T12:07:20.545Z,0.35
2022-11-18T12:10:16.352Z,0.40
2022-11-18T12:12:52.976Z,0.40
2022-11-18T12:15:30.937Z,0.40
2022-11-18T12:18:12.002Z,0.29
2022-11-18T12:20:44.848Z,0.36
2022-11-18T12:23:18.604Z,0.49
2022-11-18T12:25:59.232Z,0.61
2022-11-18T12:28:31.150Z,0.62
2022-11-18T12:31:36.339Z,0.67
2022-11-18T12:34:21.455Z,0.81
2022-11-18T12:36:50.808Z,0.88
2022-11-18T12:39:58.511Z,0.78
2022-11-18T12:43:07.790Z,0.85
2022-11-18T12:45:57.576Z,0.79
2022-11-18T12:48:37.381Z,0.82
2022-11-18T12:51:50.344Z,0.75
2022-11-18T12:54:32.737Z,0.75
2022-11-18T12:57:03.460Z,0.72
2022-11-18T12:59:34.697Z,0.72
2022-11-18T13:02:24.370Z,0.66
2022-11-18T13:05:10.142Z,0.65
2022-11-18T13:08:01.734Z,0.65
2022-11-18T13:10:34.264Z,0.55
2022-11-18T13:13:03.606Z,0.58
2022-11-18T13:15:49.191Z,0.62
2022-11-18T13:18:19.575Z,0.56
2022-11-18T13:20:56.189Z,0.58
2022-11-18T13:23:47.583Z,0.59
2022-11-18T13:26:27.830Z,0.57
2022-11-18T13:29:20.584Z,0.54
2022-11-18T13:31:58.530Z,0.60
2022-11-18T13:34:28.999Z,0.61
2022-11-18T13:36:59.175Z,0.58
2022-11-18T13:39:29.074Z,0.52
2022-11-18T13:42:03.615Z,0.54
2022-11-18T13:44:32.834Z,0.51
2022-11-18T13:47:07.684Z,0.51
2022-11-18T13:49:50.397Z,0.45
2022-11-18T13:52:24.922Z,0.51
2022-11-18T13:54:55.524Z,0.48
2022-11-18T13:57:26.827Z,0.47
2022-11-18T13:59:56.066Z,0.48
2022-11-18T14:02:24.642Z,0.46
2022-11-18T14:04:56.222Z,0.43
2022-11-18T14:07:27.746Z,0.48
2022-11-18T14:09:57.511Z,0.49
2022-11-18T14:12:29.857Z,0.48
2022-11-18T14:15:15.638Z,0.53
2022-11-18T14:17:55.316Z,0.50
2022-11-18T14:20:24.601Z,0.51
2022-11-18T14:22:57.066Z,0.55
2022-11-18T14:25:29.124Z,0.57
2022-11-18T14:27:59.495Z,0.52
2022-11-18T14:30:30.228Z,0.56
2022-11-18T14:33:10.984Z,0.52
2022-11-18T14:35:39.283Z,0.48
2022-11-18T14:41:08.799Z,0.40
2022-11-18T14:43:38.183Z,0.37
2022-11-18T14:46:12.179Z,0.33
2022-11-18T14:48:40.148Z,0.31
2022-11-18T14:51:08.370Z,0.22
2022-11-18T14:53:36.340Z,0.20
2022-11-18T14:56:04.451Z,0.15
2022-11-18T14:58:32.378Z,0.11
2022-11-18T15:01:01.855Z,0.10
2022-11-18T15:03:29.863Z,0.05
2022-11-18T15:05:57.855Z,-0.01
2022-11-18T15:08:25.827Z,-0.03
2022-11-18T15:10:53.879Z,-0.06
2022-11-18T15:13:21.907Z,-0.07
2022-11-18T15:15:49.977Z,-0.05
2022-11-18T15:18:19.404Z,-0.12
2022-11-18T15:20:47.428Z,-0.16
2022-11-18T15:23:15.393Z,-0.15
2022-11-18T15:25:43.512Z,-0.14
2022-11-18T15:28:12.187Z,-0.20
2022-11-18T15:30:40.203Z,-0.26
2022-11-18T15:33:08.211Z,-0.29
2022-11-18T15:35:37.659Z,-0.28
2022-11-18T15:38:06.104Z,-0.28
2022-11-18T15:40:35.121Z,-0.29
2022-11-18T15:43:03.134Z,-0.26
2022-11-18T15:45:31.170Z,-0.31
2022-11-18T15:47:59.155Z,-0.34
2022-11-18T15:50:27.178Z,-0.37
2022-11-18T15:52:57.528Z,-0.39
2022-11-18T15:55:25.456Z,-0.41
2022-11-18T15:57:53.437Z,-0.47
2022-11-18T16:00:21.524Z,-0.53
2022-11-18T16:02:49.466Z,-0.51
2022-11-18T16:05:17.753Z,-0.50
2022-11-18T16:07:46.432Z,-0.56
2022-11-18T16:10:43.691Z,-0.56
2022-11-18T16:13:11.735Z,-0.55
2022-11-18T16:15:48.023Z,-0.55
2022-11-18T16:18:19.582Z,-0.65
2022-11-18T16:20:47.670Z,-0.66
2022-11-18T16:23:15.817Z,-0.63
2022-11-18T16:25:48.347Z,-0.68
2022-11-18T16:28:16.343Z,-0.72
2022-11-18T16:31:06.881Z,-0.73
2022-11-18T16:33:34.965Z,-0.79
2022-11-18T16:36:03.321Z,-0.82
2022-11-18T16:38:31.413Z,-0.87
2022-11-18T16:41:00.997Z,-0.90
2022-11-18T16:43:29.463Z,-0.90
2022-11-18T16:45:57.472Z,-0.99
2022-11-18T16:48:25.642Z,-1.03
2022-11-18T16:51:13.861Z,-1.06
2022-11-18T16:53:41.829Z,-1.03
2022-11-18T16:56:11.147Z,-1.08
2022-11-18T16:58:39.109Z,-1.08
2022-11-18T17:01:19.834Z,-1.08
2022-11-18T17:03:51.833Z,-1.15
2022-11-18T17:06:19.952Z,-1.11
2022-11-18T17:08:48.129Z,-1.13
2022-11-18T17:11:17.931Z,-1.13
2022-11-18T17:13:46.184Z,-1.18
2022-11-18T17:16:16.101Z,-1.16
2022-11-18T17:18:44.188Z,-1.22
2022-11-18T17:21:13.957Z,-1.26
2022-11-18T17:23:42.344Z,-1.24
2022-11-18T17:26:10.291Z,-1.30
2022-11-18T17:28:39.967Z,-1.29
2022-11-18T17:31:08.999Z,-1.28
2022-11-18T17:33:37.495Z,-1.30
2022-11-18T17:36:07.394Z,-1.32
2022-11-18T17:38:36.592Z,-1.33
2022-11-18T17:41:04.894Z,-1.36
2022-11-18T17:43:33.158Z,-1.38
2022-11-18T17:46:03.135Z,-1.40
2022-11-18T17:48:31.698Z,-1.43
2022-11-18T17:51:08.577Z,-1.48
2022-11-18T17:53:39.033Z,-1.48
2022-11-18T17:56:10.839Z,-1.47
2022-11-18T17:58:38.856Z,-1.48
2022-11-18T18:01:09.657Z,-1.51
2022-11-18T18:03:37.937Z,-1.54
2022-11-18T18:06:07.399Z,-1.55
2022-11-18T18:08:36.073Z,-1.57
2022-11-18T18:11:04.651Z,-1.67
2022-11-18T18:13:49.867Z,-1.61
2022-11-18T18:16:19.446Z,-1.65
2022-11-18T18:18:47.457Z,-1.64
2022-11-18T18:21:15.613Z,-1.66
2022-11-18T18:23:44.265Z,-1.63
2022-11-18T18:26:13.089Z,-1.74
2022-11-18T18:28:41.110Z,-1.77
2022-11-18T18:31:10.961Z,-1.76
2022-11-18T18:33:40.942Z,-1.79
2022-11-18T18:36:11.924Z,-1.76
2022-11-18T18:38:40.436Z,-1.82
2022-11-18T18:41:11.738Z,-1.80
2022-11-18T18:43:39.901Z,-1.81
2022-11-18T18:46:30.792Z,-1.86
2022-11-18T18:49:05.772Z,-1.82
2022-11-18T18:51:36.832Z,-1.84
2022-11-18T18:54:05.474Z,-1.89
2022-11-18T18:56:34.035Z,-1.87
2022-11-18T18:59:02.285Z,-1.88
2022-11-18T19:01:30.429Z,-1.88
2022-11-18T19:04:02.000Z,-1.93
2022-11-18T19:09:20.205Z,-1.95
2022-11-18T19:12:06.360Z,-2.02
2022-11-18T19:14:35.382Z,-1.99
2022-11-18T19:17:09.663Z,-2.10
2022-11-18T19:19:58.622Z,-2.13
2022-11-18T19:22:27.005Z,-2.18
2022-11-18T19:24:55.406Z,-2.25
2022-11-18T19:27:23.863Z,-2.14
2022-11-18T19:29:51.957Z,-2.13
2022-11-18T19:32:19.940Z,-2.08
2022-11-18T19:34:49.325Z,-2.08
2022-11-18T19:37:17.363Z,-2.03
2022-11-18T19:39:45.388Z,-1.97
2022-11-18T19:42:13.396Z,-1.97
2022-11-18T19:44:41.408Z,-2.00
2022-11-18T19:47:09.544Z,-1.99
2022-11-18T19:49:37.479Z,-2.01
2022-11-18T19:52:07.938Z,-2.09
2022-11-18T19:54:35.928Z,-2.03
2022-11-18T19:57:04.094Z,-1.97
2022-11-18T19:59:32.202Z,-2.02
2022-11-18T20:02:00.247Z,-1.87
2022-11-18T20:04:28.273Z,-1.84
2022-11-18T20:06:56.791Z,-1.93
2022-11-18T20:09:26.496Z,-1.96
2022-11-18T20:11:55.618Z,-2.04
2022-11-18T20:14:23.571Z,-2.11
2022-11-18T20:16:52.585Z,-2.14
2022-11-18T20:19:21.009Z,-2.10
2022-11-18T20:21:49.556Z,-2.14
2022-11-18T20:24:18.999Z,-2.16
2022-11-18T20:26:48.691Z,-2.12
2022-11-18T20:29:17.368Z,-2.15
2022-11-18T20:31:45.708Z,-2.22
2022-11-18T20:34:14.323Z,-2.22
2022-11-18T20:36:43.057Z,-2.28
2022-11-18T20:39:14.560Z,-2.30
2022-11-18T20:41:42.678Z,-2.38
2022-11-18T20:44:12.105Z,-2.37
2022-11-18T20:46:40.092Z,-2.40
2022-11-18T20:49:08.143Z,-2.42
2022-11-18T20:51:36.095Z,-2.38
2022-11-18T20:54:08.236Z,-2.40
2022-11-18T20:56:36.243Z,-2.39
2022-11-18T20:59:04.235Z,-2.35
2022-11-18T21:01:33.943Z,-2.36
2022-11-18T21:04:04.430Z,-2.33
2022-11-18T21:06:33.740Z,-2.39
2022-11-18T21:09:03.597Z,-2.41
2022-11-18T21:11:34.381Z,-2.35
2022-11-18T21:14:24.412Z,-2.39
2022-11-18T21:16:55.313Z,-2.40
2022-11-18T21:19:23.982Z,-2.36
2022-11-18T21:21:52.623Z,-2.47
2022-11-18T21:24:22.980Z,-2.45
2022-11-18T21:26:54.302Z,-2.46
2022-11-18T21:29:23.294Z,-2.51
2022-11-18T21:31:51.987Z,-2.47
2022-11-18T21:34:21.855Z,-2.44
2022-11-18T21:36:54.302Z,-2.47
2022-11-18T21:39:23.208Z,-2.49
2022-11-18T21:41:55.596Z,-2.48
2022-11-18T21:44:25.908Z,-2.51
2022-11-18T21:46:53.981Z,-2.53
2022-11-18T21:49:23.776Z,-2.52
2022-11-18T21:51:51.894Z,-2.49
2022-11-18T21:54:19.945Z,-2.52
2022-11-18T21:56:47.961Z,-2.56
2022-11-18T21:59:15.949Z,-2.49
2022-11-18T22:01:44.015Z,-2.56
2022-11-18T22:04:32.667Z,-2.51
2022-11-18T22:07:02.061Z,-2.58
2022-11-18T22:09:35.848Z,-2.60
2022-11-18T22:12:06.000Z,-2.64
2022-11-18T22:14:33.976Z,-2.58
2022-11-18T22:17:01.949Z,-2.54
2022-11-18T22:19:30.519Z,-2.58
2022-11-18T22:21:58.764Z,-2.58
2022-11-18T22:24:28.287Z,-2.56
2022-11-18T22:26:56.255Z,-2.56
2022-11-18T22:29:26.027Z,-2.51
2022-11-18T22:31:54.134Z,-2.54
2022-11-18T22:34:22.089Z,-2.52
2022-11-18T22:36:50.219Z,-2.55
2022-11-18T22:39:18.589Z,-2.64
2022-11-18T22:42:05.439Z,-2.71
2022-11-18T22:44:33.445Z,-2.70
2022-11-18T22:47:01.429Z,-2.93
2022-11-18T22:49:29.424Z,-3.03
2022-11-18T22:51:57.414Z,-3.07
2022-11-18T22:54:41.183Z,-3.01
2022-11-18T22:57:10.627Z,-3.00
2022-11-18T22:59:38.608Z,-2.95
2022-11-18T23:02:06.679Z,-2.97
2022-11-18T23:04:35.021Z,-2.93
2022-11-18T23:07:03.386Z,-2.93
2022-11-18T23:09:31.563Z,-2.90
2022-11-18T23:12:16.990Z,-2.86
2022-11-18T23:14:46.540Z,-2.96
2022-11-18T23:17:15.829Z,-3.03
2022-11-18T23:19:44.112Z,-3.03
2022-11-18T23:22:12.640Z,-3.08
2022-11-18T23:24:40.860Z,-3.16
2022-11-18T23:27:09.022Z,-3.19
2022-11-18T23:29:37.124Z,-3.19
2022-11-18T23:32:06.804Z,-3.18
2022-11-18T23:34:34.765Z,-3.01
2022-11-18T23:37:02.786Z,-2.98
2022-11-18T23:39:30.711Z,-2.93
2022-11-18T23:41:59.031Z,-2.87
2022-11-18T23:44:40.945Z,-2.95
2022-11-18T23:47:10.231Z,-2.95
2022-11-18T23:49:38.219Z,-3.02
2022-11-18T23:52:06.215Z,-3.14
2022-11-18T23:54:34.368Z,-3.42
2022-11-18T23:57:04.439Z,-3.53
2022-11-18T23:59:33.411Z,-3.77
